Meteo Giornale » Osservazioni meteo Italia » Milano-Malpensa

ore: 00:50 - Osservazioni Meteo Milano-Malpensa
Lat. 45° 37' N Lon. 8° 44' E Alt. 234 metri s.l.m.

sereno Europe/Rome

10 °C

Sereno

Temp. 24 Ore

6 °C

23 °C

Nord/Nord-Est

13 Km/h

Dew point 8 °C

Umidità 87 %

Visibilità  10 Km

Il sole sorge alle ore 07:11

Il sole tramonta alle ore 19:23

Data e Ora Cielo e Fenomeni T °C DP °C Um. % Pres. hPa Vis. km Vento km/h
Oggi h: 00:50 sereno Sereno 10 8 87 1020 10 N/NE 13
Oggi h: 00:20 sereno Sereno 11 8 81 1020 10 N 7.4
Ieri h: 23:50 sereno Sereno 12 9 81 1020 10 N 5.5
Ieri h: 23:20 sereno Sereno 12 8 76 1019 10 N/NE 9.3
Ieri h: 22:50 sereno Sereno 15 8 62 1020 10 N/NO 7.4
Ieri h: 22:20 sereno Sereno 14 7 62 1019 10 N 1.8
Ieri h: 21:50 sereno Sereno 13 7 66 1019 10 N 5.5
Ieri h: 21:20 sereno Sereno 13 8 71 1019 10 N/NE 9.3
Ieri h: 20:50 sereno Sereno 15 7 58 1019 10 N/NE 7.4
Ieri h: 20:20 sereno Sereno 18 7 48 1019 10 N 1.8
Ieri h: 19:50 sereno Sereno 19 6 42 1018 10 O/SO 9.3
Ieri h: 19:20 sereno Sereno 20 5 37 1018 10 SO 9.3
Ieri h: 18:50 sereno Sereno 21 5 35 1018 10 O/SO 9.3
Ieri h: 18:20 sereno Sereno 22 4 30 1018 10 N 5.5
Ieri h: 17:50 sereno Sereno 22 4 30 1018 10 S/SO 9.3
Ieri h: 17:20 sereno Sereno 22 5 32 1018 10 O 9.3
Ieri h: 16:50 sereno Sereno 23 4 28 1018 10 N 7.4
Ieri h: 16:20 sereno Sereno 23 4 28 1018 10 N 3.7
Ieri h: 15:50 sereno Sereno 22 4 30 1019 10 S/SO 7.4
Ieri h: 15:20 sereno Sereno 22 5 32 1019 10 N 5.5
Ieri h: 14:50 sereno Sereno 22 6 35 1019 10 N 5.5
Ieri h: 14:20 sereno Sereno 21 6 37 1019 10 N 7.4
Ieri h: 13:50 sereno Sereno 21 6 37 1019 10 S/SE 7.4
Ieri h: 13:20 sereno Sereno 20 6 39 1020 10 E/SE 9.3
Ieri h: 12:50 sereno Sereno 20 6 39 1020 10 N 5.5
Ieri h: 12:20 sereno Sereno 20 6 39 1020 10 N 7.4
Ieri h: 11:50 sereno Sereno 19 4 37 1020 10 N 5.5
Ieri h: 11:20 sereno Sereno 19 3 34 1020 10 N 5.5
Ieri h: 10:50 sereno Sereno 19 5 39 1020 10 N 5.5
Ieri h: 10:20 sereno Sereno 17 4 41 1020 10 N 7.4
Ieri h: 09:50 sereno Sereno 16 4 44 1020 10 N 13
Ieri h: 09:20 sereno Sereno 14 5 54 1020 10 N 9.3
Ieri h: 08:50 sereno Sereno 12 6 66 1020 10 N 5.5
Ieri h: 08:20 sereno Sereno 9 5 75 1020 10 N 9.3
Ieri h: 07:50 sereno Sereno 7 4 81 1020 10 N/NE 7.4
Ieri h: 07:20 sereno Sereno 6 4 86 1020 10 N 11.1
Ieri h: 06:50 sereno Sereno 9 3 66 1020 10 N 5.5
Ieri h: 06:20 sereno Sereno 8 4 75 1019 10 E 7.4
Ieri h: 05:50 sereno Sereno 8 3 70 1019 10 N/NE 9.3
Ieri h: 05:20 sereno Sereno 8 3 70 1019 10 N/NE 11.1
Ieri h: 04:50 sereno Sereno 10 3 61 1019 10 N/NE 11.1
Ieri h: 04:20 sereno Sereno 9 3 66 1019 10 N/NE 9.3
Ieri h: 03:50 sereno Sereno 9 3 66 1019 10 N/NE 11.1
Ieri h: 03:20 sereno Sereno 8 3 70 1019 10 N/NE 11.1
Ieri h: 02:50 sereno Sereno 8 3 70 1019 10 N 9.3
Ieri h: 02:20 sereno Sereno 9 3 66 1019 10 N 7.4
Ieri h: 01:50 sereno Sereno 8 4 75 1019 10 N 9.3